Aeroporto :
LOGIN :

Iscrizione | Disclaimer

   EN    FR    IT 

 










Sommario :    VFR   VFR Marginale   IFR   IFR Intensivo   IFR Molto Intensivo
Visibilità : 
Base nubi : 
>= 8 km
>= 3000ft
5 / 8 km
1000 / 3000 ft
1500m / 5 km
500 / 1000 ft
800 / 1500m
200 / 500 ft
< 800m
< 200 ft
Simboli :   Temporali  Nebbia  Neve Forte  Precipitazioni Forti  Vento > 20 kt
SIGMETs :   Varie  Temporali  Ghiacco  Turbolenza  Onda orograficha  Ceneri Vulcaniche






- Altitudine del aeroporto : 605 ft
- Codice IATA : BAY


LRBM - Tautii Magheraus

ULTIMO METAR :
  • 170030Z AUTO 07002KT 9999 NCD 01/M02 Q1028

METARs OBSOLETI :
  • 170000Z AUTO 09005KT 9999 NCD 01/M02 Q1028
  • 162330Z AUTO 09008KT 9999 FEW240/// 02/M01 Q1028
  • 162300Z AUTO VRB02KT 9999 FEW240/// 02/M01 Q1028
  • 162230Z AUTO 08003KT 9999 NCD 02/M01 Q1029
  • 162200Z 06005KT 010V090 CAVOK 02/M01 Q1029

TAF TAF LRBM
Valido dal 17 a 00 ore il 17 a 09 ore UTC


162300Z 1700/1709 VRB04KT CAVOK



MetMap, La meteo Aeronautica in un colpo d'occhio ! - Copyright ORBIFLY Dicembre 2007 - Disclaimer

ORBIFLY MET'MAP TEAM :

Programmazione e sviluppo : Alexandra Zaïnal
Concezione : Baudouin d'Aumeries
Aiuto per la programmazione : Marc-Olivier Méhu
Supporto tecnico e logistico : Manuel Goepfert
Aiuto per la traduzione : Arnaldo La Scala

Contatto : metmap@orbifly.com




FONTI E CREDITI :

   NOAA